createdAt,value
2022-12-18T08:00:47.735Z,6.26
2022-12-18T08:03:17.418Z,5.36
2022-12-18T08:05:45.754Z,4.36
2022-12-18T08:08:14.101Z,3.55
2022-12-18T08:10:42.602Z,2.85
2022-12-18T08:13:10.844Z,2.25
2022-12-18T08:15:39.124Z,1.73
2022-12-18T08:18:12.675Z,1.27
2022-12-18T08:20:42.748Z,0.84
2022-12-18T08:23:11.252Z,0.52
2022-12-18T08:25:39.468Z,0.23
2022-12-18T08:28:07.990Z,0.00
2022-12-18T08:30:37.167Z,-0.21
2022-12-18T08:33:06.170Z,-0.40
2022-12-18T08:35:44.047Z,-0.54
2022-12-18T08:38:14.000Z,-0.69
2022-12-18T08:40:42.398Z,-0.78
2022-12-18T08:43:34.667Z,-0.84
2022-12-18T08:46:03.246Z,-0.89
2022-12-18T08:48:31.624Z,-0.88
2022-12-18T08:51:00.838Z,-0.90
2022-12-18T08:53:34.156Z,-0.88
2022-12-18T08:56:04.744Z,-0.87
2022-12-18T08:58:33.624Z,-0.85
2022-12-18T09:01:04.662Z,-0.79
2022-12-18T09:03:34.629Z,-0.71
2022-12-18T09:06:03.359Z,-0.64
2022-12-18T09:08:31.748Z,-0.57
2022-12-18T09:11:03.004Z,-0.48
2022-12-18T09:13:31.383Z,-0.39
2022-12-18T09:15:59.949Z,-0.31
2022-12-18T09:18:28.219Z,-0.22
2022-12-18T09:20:56.772Z,-0.13
2022-12-18T09:23:25.084Z,-0.06
2022-12-18T09:26:00.665Z,0.01
2022-12-18T09:28:29.008Z,0.10
2022-12-18T09:30:57.557Z,0.20
2022-12-18T09:33:26.136Z,0.30
2022-12-18T09:35:54.496Z,0.41
2022-12-18T09:38:24.232Z,0.50
2022-12-18T09:40:59.905Z,0.61
2022-12-18T09:43:46.362Z,0.72
2022-12-18T09:46:26.669Z,0.82
2022-12-18T09:49:00.220Z,0.91
2022-12-18T09:51:37.334Z,1.00
2022-12-18T09:54:11.769Z,1.12
2022-12-18T09:56:43.680Z,1.24
2022-12-18T09:59:37.097Z,1.37
2022-12-18T10:02:35.104Z,1.55
2022-12-18T10:05:26.583Z,1.71
2022-12-18T10:08:04.327Z,1.88
2022-12-18T10:10:55.810Z,2.05
2022-12-18T10:13:36.332Z,2.18
2022-12-18T10:16:17.332Z,2.29
2022-12-18T10:19:04.808Z,2.37
2022-12-18T10:22:03.926Z,2.45
2022-12-18T10:24:37.083Z,2.56
2022-12-18T10:27:17.525Z,2.63
2022-12-18T10:29:47.259Z,2.71
2022-12-18T10:32:30.639Z,2.79
2022-12-18T10:35:00.665Z,2.87
2022-12-18T10:37:30.959Z,2.92
2022-12-18T10:40:18.448Z,3.00
2022-12-18T10:43:15.602Z,3.10
2022-12-18T10:46:00.297Z,3.23
2022-12-18T10:48:31.104Z,3.33
2022-12-18T10:51:10.949Z,3.40
2022-12-18T10:53:44.122Z,3.50
2022-12-18T10:56:13.500Z,3.62
2022-12-18T10:58:42.171Z,3.74
2022-12-18T11:01:18.268Z,3.87
2022-12-18T11:04:01.631Z,4.03
2022-12-18T11:06:30.774Z,4.13
2022-12-18T11:09:06.690Z,4.24
2022-12-18T11:11:39.497Z,4.34
2022-12-18T11:14:19.358Z,4.35
2022-12-18T11:17:23.906Z,4.43
2022-12-18T11:19:41.080Z,4.57
2022-12-18T11:22:27.655Z,4.68
2022-12-18T11:27:57.400Z,4.94
2022-12-18T11:30:34.459Z,5.03
2022-12-18T11:33:13.199Z,5.12
2022-12-18T11:36:04.762Z,5.23
2022-12-18T11:38:43.828Z,5.33
2022-12-18T11:41:55.879Z,5.36
2022-12-18T11:44:29.837Z,5.40
2022-12-18T11:47:04.744Z,5.37
2022-12-18T11:49:37.384Z,5.34
2022-12-18T11:52:05.521Z,5.35
2022-12-18T11:54:33.789Z,5.42
2022-12-18T11:57:04.934Z,5.39
2022-12-18T11:59:49.268Z,5.37
2022-12-18T12:02:36.200Z,5.36
2022-12-18T12:05:10.703Z,5.40
2022-12-18T12:08:17.488Z,5.38
2022-12-18T12:11:01.949Z,5.37
2022-12-18T12:13:51.961Z,5.38
2022-12-18T12:16:29.890Z,5.28
2022-12-18T12:19:17.400Z,5.14
2022-12-18T12:21:58.403Z,5.05
2022-12-18T12:24:40.720Z,5.13
2022-12-18T12:27:36.849Z,5.34
2022-12-18T12:30:15.657Z,5.84
2022-12-18T12:32:53.276Z,6.70
2022-12-18T12:35:37.420Z,7.77
2022-12-18T12:38:14.092Z,8.83
2022-12-18T12:40:55.281Z,9.67
2022-12-18T12:43:50.223Z,10.11
2022-12-18T12:46:22.865Z,9.94
2022-12-18T12:48:56.749Z,9.54
2022-12-18T12:51:32.168Z,9.01
2022-12-18T12:54:02.779Z,8.31
2022-12-18T12:56:51.501Z,7.84
2022-12-18T12:59:22.597Z,7.34
2022-12-18T13:02:00.801Z,6.87
2022-12-18T13:04:43.636Z,6.41
2022-12-18T13:07:29.903Z,5.91
2022-12-18T13:10:39.119Z,5.42
2022-12-18T13:13:47.566Z,4.92
2022-12-18T13:16:09.278Z,4.40
2022-12-18T13:18:37.980Z,4.01
2022-12-18T13:21:22.945Z,3.68
2022-12-18T13:23:52.266Z,3.33
2022-12-18T13:26:28.134Z,3.03
2022-12-18T13:28:59.371Z,2.74
2022-12-18T13:31:43.532Z,2.49
2022-12-18T13:34:28.294Z,2.25
2022-12-18T13:37:32.669Z,2.04
2022-12-18T13:40:01.455Z,1.83
2022-12-18T13:42:58.179Z,1.70
2022-12-18T13:45:39.907Z,1.51
2022-12-18T13:48:19.274Z,1.34
2022-12-18T13:50:56.204Z,1.19
2022-12-18T13:53:53.008Z,1.08
2022-12-18T13:56:27.753Z,0.97
2022-12-18T13:59:14.067Z,0.89
2022-12-18T14:01:45.156Z,0.82
2022-12-18T14:04:20.819Z,0.73
2022-12-18T14:06:52.551Z,0.62
2022-12-18T14:09:37.355Z,0.50
2022-12-18T14:12:31.828Z,0.39
2022-12-18T14:15:02.943Z,0.24
2022-12-18T14:17:33.362Z,0.14
2022-12-18T14:20:03.845Z,0.04
2022-12-18T14:22:32.250Z,-0.04
2022-12-18T14:25:18.151Z,-0.12
2022-12-18T14:28:03.389Z,-0.27
2022-12-18T14:30:44.377Z,-0.40
2022-12-18T14:33:15.057Z,-0.49
2022-12-18T14:35:54.770Z,-0.57
2022-12-18T14:38:28.153Z,-0.66
2022-12-18T14:41:06.092Z,-0.73
2022-12-18T14:43:37.566Z,-0.81
2022-12-18T14:46:26.964Z,-0.88
2022-12-18T14:48:57.479Z,-0.95
2022-12-18T14:51:28.681Z,-1.00
2022-12-18T14:54:01.507Z,-1.04
2022-12-18T14:56:44.217Z,-1.08
2022-12-18T14:59:25.933Z,-1.12
2022-12-18T15:02:21.459Z,-1.16
2022-12-18T15:05:13.367Z,-1.19
2022-12-18T15:07:44.342Z,-1.24
2022-12-18T15:10:22.310Z,-1.28
2022-12-18T15:12:57.665Z,-1.32
2022-12-18T15:15:37.115Z,-1.36
2022-12-18T15:18:14.118Z,-1.43
2022-12-18T15:21:09.867Z,-1.50
2022-12-18T15:23:44.872Z,-1.56
2022-12-18T15:26:16.695Z,-1.58
2022-12-18T15:28:51.363Z,-1.63
2022-12-18T15:31:25.750Z,-1.69
2022-12-18T15:33:54.190Z,-1.72
2022-12-18T15:36:26.321Z,-1.72
2022-12-18T15:39:05.358Z,-1.73
2022-12-18T15:41:37.741Z,-1.77
2022-12-18T15:44:25.793Z,-1.83
2022-12-18T15:46:54.104Z,-1.88
2022-12-18T15:49:22.396Z,-1.89
2022-12-18T15:51:55.065Z,-1.94
2022-12-18T15:54:43.845Z,-1.98
2022-12-18T15:57:24.751Z,-1.99
2022-12-18T15:59:57.516Z,-2.02
2022-12-18T16:02:27.178Z,-2.04
2022-12-18T16:04:55.888Z,-2.06
2022-12-18T16:07:25.006Z,-2.07
2022-12-18T16:09:54.327Z,-2.09
2022-12-18T16:12:26.652Z,-2.11
2022-12-18T16:14:55.008Z,-2.12
2022-12-18T16:17:23.495Z,-2.13
2022-12-18T16:19:51.826Z,-2.20
2022-12-18T16:22:26.673Z,-2.25
2022-12-18T16:24:56.849Z,-2.26
2022-12-18T16:27:25.986Z,-2.30
2022-12-18T16:29:54.511Z,-2.34
2022-12-18T16:32:23.672Z,-2.39
2022-12-18T16:34:53.025Z,-2.41
2022-12-18T16:37:21.308Z,-2.45
2022-12-18T16:39:49.684Z,-2.50
2022-12-18T16:42:20.705Z,-2.53
2022-12-18T16:44:50.347Z,-2.56
2022-12-18T16:47:19.889Z,-2.58
2022-12-18T16:49:51.869Z,-2.59
2022-12-18T16:52:20.796Z,-2.64
2022-12-18T16:54:49.184Z,-2.69
2022-12-18T16:57:21.073Z,-2.75
2022-12-18T16:59:52.164Z,-2.79
2022-12-18T17:02:24.433Z,-2.84
2022-12-18T17:04:57.562Z,-2.92
2022-12-18T17:07:26.899Z,-2.99
2022-12-18T17:09:55.787Z,-3.04
2022-12-18T17:12:24.425Z,-2.95
2022-12-18T17:14:52.774Z,-2.23
2022-12-18T17:17:22.837Z,-1.44
2022-12-18T17:19:52.782Z,-0.78
2022-12-18T17:22:23.500Z,-0.29
2022-12-18T17:24:52.033Z,-0.02
2022-12-18T17:27:20.530Z,-0.42
2022-12-18T17:29:49.377Z,-0.95
2022-12-18T17:32:18.367Z,-1.37
2022-12-18T17:34:46.890Z,-1.73
2022-12-18T17:37:15.817Z,-1.98
2022-12-18T17:39:44.386Z,-2.21
2022-12-18T17:42:15.557Z,-2.42
2022-12-18T17:44:45.211Z,-2.61
2022-12-18T17:47:14.051Z,-2.83
2022-12-18T17:49:42.413Z,-2.98
2022-12-18T17:52:11.048Z,-3.10
2022-12-18T17:54:42.175Z,-3.23
2022-12-18T17:57:11.225Z,-3.31
2022-12-18T17:59:39.843Z,-3.38
2022-12-18T18:02:11.890Z,-3.47
2022-12-18T18:04:40.483Z,-3.56
2022-12-18T18:07:08.865Z,-3.61
2022-12-18T18:09:37.166Z,-3.66
2022-12-18T18:12:38.198Z,-3.73
2022-12-18T18:15:07.250Z,-3.82
2022-12-18T18:17:36.603Z,-3.89
2022-12-18T18:20:06.312Z,-3.81
2022-12-18T18:22:34.820Z,-2.93
2022-12-18T18:25:03.883Z,-2.10
